Time;durP1;ratioP1;P1;durP2;ratioP2;P2;SDS_P1;SDS_P2;PMS_P1;PMS_P2;Temp;Humidity;BMP_temperature;BMP_pressure;BME280_temperature;BME280_humidity;BME280_pressure;Samples;Min_cycle;Max_cycle;Signal;HPM_P1;HPM_P2
2021/08/16 00:00:52;;;;;;;3.22;1.00;;;;;;;22.35;57.56;100147.25;4982565;28;121246;-79
2021/08/16 00:03:18;;;;;;;3.15;0.95;;;;;;;22.35;58.58;100141.66;4989635;28;123495;-79
2021/08/16 00:05:46;;;;;;;3.03;1.10;;;;;;;22.25;58.54;100135.06;4985910;28;121337;-80
2021/08/16 00:08:14;;;;;;;3.30;1.40;;;;;;;22.30;58.25;100148.88;4997955;27;120785;-80
2021/08/16 00:10:41;;;;;;;3.67;1.08;;;;;;;22.29;58.67;100155.78;4995638;27;120750;-80
2021/08/16 00:13:07;;;;;;;3.40;1.00;;;;;;;22.30;57.47;100157.28;4983404;28;123084;-81
2021/08/16 00:15:32;;;;;;;3.88;1.00;;;;;;;22.27;57.56;100152.03;4998054;27;123255;-80
2021/08/16 00:17:59;;;;;;;2.50;0.90;;;;;;;22.19;58.03;100151.19;4979350;27;122155;-81
2021/08/16 00:20:28;;;;;;;3.45;1.20;;;;;;;22.22;58.21;100155.69;4972563;27;122400;-80
2021/08/16 00:22:54;;;;;;;5.10;1.20;;;;;;;22.20;58.59;100155.47;4996694;28;121768;-80
2021/08/16 00:25:23;;;;;;;3.10;1.27;;;;;;;22.19;58.38;100162.34;5012533;27;120895;-79
2021/08/16 00:27:54;;;;;;;3.40;1.27;;;;;;;22.11;57.50;100162.28;4997709;27;121501;-80
2021/08/16 00:30:24;;;;;;;4.85;1.52;;;;;;;22.05;57.68;100161.69;5005185;27;121468;-80
2021/08/16 00:32:50;;;;;;;3.27;1.63;;;;;;;22.02;58.07;100165.53;4985819;27;122315;-80
2021/08/16 00:35:18;;;;;;;4.97;1.50;;;;;;;21.96;58.13;100154.47;4983390;27;121952;-80
2021/08/16 00:37:46;;;;;;;3.47;1.42;;;;;;;21.94;58.16;100150.72;5001424;28;121118;-79
2021/08/16 00:40:13;;;;;;;4.32;1.58;;;;;;;21.92;58.04;100144.94;5004344;27;120752;-79
2021/08/16 00:42:39;;;;;;;4.78;1.60;;;;;;;21.89;58.54;100134.84;4984198;27;123340;-79
2021/08/16 00:45:07;;;;;;;3.50;1.37;;;;;;;21.87;58.51;100134.66;5005694;27;120487;-80
2021/08/16 00:47:37;;;;;;;4.05;1.60;;;;;;;21.88;58.83;100136.91;4991340;27;120896;-81
2021/08/16 00:50:04;;;;;;;3.97;1.30;;;;;;;21.86;58.36;100136.69;4977630;28;120369;-79
2021/08/16 00:52:32;;;;;;;4.57;1.50;;;;;;;21.87;58.57;100124.22;5005270;27;120843;-80
2021/08/16 00:54:59;;;;;;;3.63;1.40;;;;;;;21.86;57.94;100116.41;4986546;27;124172;-80
2021/08/16 00:57:28;;;;;;;2.97;1.40;;;;;;;21.76;58.75;100104.94;5002699;27;122562;-78
2021/08/16 00:59:54;;;;;;;4.32;1.65;;;;;;;21.82;58.97;100116.00;4999608;27;120763;-78
2021/08/16 01:02:20;;;;;;;3.88;1.80;;;;;;;21.82;58.58;100118.78;5004213;27;120674;-78
2021/08/16 01:04:46;;;;;;;5.77;1.50;;;;;;;21.79;58.85;100125.44;4980488;28;120950;-78
2021/08/16 01:07:12;;;;;;;4.73;1.67;;;;;;;21.73;58.23;100117.19;4990496;28;121416;-78
2021/08/16 01:09:37;;;;;;;5.70;1.80;;;;;;;21.70;58.90;100129.44;5003979;27;120800;-77
2021/08/16 01:12:06;;;;;;;4.77;1.70;;;;;;;21.68;58.54;100132.00;5001935;27;120254;-78
2021/08/16 01:14:32;;;;;;;6.43;1.80;;;;;;;21.68;59.17;100137.59;5000858;27;120283;-78
2021/08/16 01:17:01;;;;;;;6.33;2.00;;;;;;;21.66;58.82;100120.66;5000090;27;122212;-78
2021/08/16 01:19:26;;;;;;;5.28;1.73;;;;;;;21.64;58.62;100121.19;4981896;28;120148;-78
2021/08/16 01:21:52;;;;;;;4.75;1.88;;;;;;;21.62;58.53;100129.34;4997178;27;120873;-78
2021/08/16 01:24:18;;;;;;;6.03;1.97;;;;;;;21.59;58.92;100124.84;4982916;27;120075;-78
2021/08/16 01:26:43;;;;;;;6.80;2.00;;;;;;;21.60;59.00;100122.81;5001342;27;121175;-78
2021/08/16 01:29:20;;;;;;;4.60;1.95;;;;;;;21.60;58.88;100123.56;4988104;28;121050;-78
2021/08/16 01:31:46;;;;;;;6.50;1.92;;;;;;;21.55;59.25;100118.84;5000992;27;120455;-78
2021/08/16 01:34:12;;;;;;;4.50;1.90;;;;;;;21.58;58.76;100117.03;5004266;27;121088;-78
2021/08/16 01:36:41;;;;;;;5.80;2.15;;;;;;;21.52;59.17;100119.16;4980887;28;119910;-78
2021/08/16 01:39:07;;;;;;;7.18;1.85;;;;;;;21.54;59.10;100122.19;4998958;27;120562;-78
2021/08/16 01:41:34;;;;;;;5.28;1.90;;;;;;;21.53;59.23;100117.88;5004143;27;120571;-78
2021/08/16 01:43:59;;;;;;;14.70;2.30;;;;;;;21.52;59.67;100113.59;4980591;28;119919;-78
2021/08/16 01:46:28;;;;;;;6.10;1.70;;;;;;;21.50;59.41;100116.16;4994416;27;120596;-78
2021/08/16 01:48:53;;;;;;;10.88;2.20;;;;;;;21.53;60.04;100123.47;4999983;27;120355;-79
2021/08/16 01:51:21;;;;;;;6.47;1.85;;;;;;;21.50;59.19;100111.34;4993510;28;120562;-79
2021/08/16 01:53:47;;;;;;;4.97;1.70;;;;;;;21.49;59.66;100123.78;4981792;28;119952;-78
2021/08/16 01:56:12;;;;;;;3.90;1.70;;;;;;;21.50;59.74;100105.00;4986724;28;120587;-78
2021/08/16 01:58:41;;;;;;;4.45;1.88;;;;;;;21.37;59.19;100084.22;5005082;27;121404;-78
2021/08/16 02:01:06;;;;;;;6.00;1.90;;;;;;;21.48;59.36;100093.63;5003553;27;120883;-78
2021/08/16 02:03:32;;;;;;;3.60;1.80;;;;;;;21.48;59.42;100082.47;4997878;28;120348;-78
2021/08/16 02:05:57;;;;;;;5.13;2.20;;;;;;;21.47;59.58;100086.56;4989225;28;120345;-78
2021/08/16 02:08:23;;;;;;;5.30;1.85;;;;;;;21.45;59.49;100087.09;5005522;27;120529;-78
2021/08/16 02:10:49;;;;;;;3.60;1.70;;;;;;;21.44;58.82;100093.97;5007585;27;119833;-78
2021/08/16 02:13:17;;;;;;;5.13;2.33;;;;;;;21.40;59.57;100072.00;5009405;27;121456;-78
2021/08/16 02:15:45;;;;;;;3.25;1.80;;;;;;;21.39;60.17;100078.13;5006572;27;120195;-78
2021/08/16 02:18:14;;;;;;;3.95;1.85;;;;;;;21.34;60.67;100071.38;4986944;28;120785;-78
2021/08/16 02:20:39;;;;;;;3.57;1.90;;;;;;;21.33;60.89;100063.53;5001456;27;120049;-78
2021/08/16 02:23:05;;;;;;;4.23;2.40;;;;;;;21.34;61.11;100054.63;5003274;27;120121;-78
2021/08/16 02:25:31;;;;;;;5.60;2.73;;;;;;;21.33;61.42;100052.38;4969787;27;120963;-78
2021/08/16 02:27:56;;;;;;;5.47;2.60;;;;;;;21.28;61.65;100047.66;5005198;27;121053;-78
2021/08/16 02:30:24;;;;;;;5.30;2.40;;;;;;;21.32;61.95;100057.22;5005180;27;120036;-78
2021/08/16 02:32:50;;;;;;;3.60;2.15;;;;;;;21.24;61.69;100041.66;4998052;27;121267;-78
2021/08/16 02:35:16;;;;;;;4.72;2.10;;;;;;;21.28;61.04;100044.88;4987781;28;122528;-78
2021/08/16 02:37:42;;;;;;;4.33;2.10;;;;;;;21.27;60.96;100046.91;4981155;28;120770;-78
2021/08/16 02:40:10;;;;;;;4.43;2.20;;;;;;;21.24;61.51;100056.34;5003494;27;122521;-79
2021/08/16 02:42:37;;;;;;;5.20;2.10;;;;;;;21.23;61.86;100051.28;5004260;27;126806;-79
2021/08/16 02:45:03;;;;;;;3.23;2.00;;;;;;;21.24;61.92;100050.78;5007025;27;119591;-78
2021/08/16 02:47:29;;;;;;;3.75;2.17;;;;;;;21.22;62.01;100047.75;4969961;28;120529;-78
2021/08/16 02:49:54;;;;;;;3.23;2.00;;;;;;;21.24;61.85;100050.03;5006657;27;120294;-78
2021/08/16 02:52:20;;;;;;;5.40;2.30;;;;;;;21.20;62.09;100044.00;5002716;27;122275;-78
2021/08/16 02:54:45;;;;;;;3.30;2.05;;;;;;;21.17;62.16;100040.25;5002625;27;120642;-78
2021/08/16 02:57:14;;;;;;;4.07;2.00;;;;;;;21.20;62.20;100053.13;5006664;27;123969;-78
2021/08/16 02:59:40;;;;;;;4.82;2.33;;;;;;;21.18;62.39;100057.75;5000463;27;121018;-78
2021/08/16 03:02:08;;;;;;;3.25;1.92;;;;;;;21.17;62.90;100061.81;4985848;28;121713;-78
2021/08/16 03:04:36;;;;;;;5.45;2.40;;;;;;;21.10;62.56;100050.03;5001337;27;120175;-78
2021/08/16 03:07:03;;;;;;;4.75;2.05;;;;;;;21.11;62.51;100037.59;5001598;27;122707;-79
2021/08/16 03:09:31;;;;;;;6.20;2.33;;;;;;;21.17;62.76;100036.72;5004377;27;120133;-78
2021/08/16 03:11:57;;;;;;;4.80;2.40;;;;;;;21.16;62.51;100038.78;4984811;28;121419;-78
2021/08/16 03:14:23;;;;;;;5.78;2.30;;;;;;;21.07;62.49;100034.41;4985763;28;120957;-78
2021/08/16 03:16:49;;;;;;;5.87;2.73;;;;;;;21.10;62.56;100035.34;5004175;27;120132;-79
2021/08/16 03:19:15;;;;;;;4.60;2.72;;;;;;;21.09;63.12;100039.44;4965869;27;120906;-78
2021/08/16 03:21:41;;;;;;;5.85;2.70;;;;;;;21.06;62.91;100029.34;5002277;27;120536;-78
2021/08/16 03:24:06;;;;;;;4.60;2.90;;;;;;;21.04;63.11;100020.75;4985110;27;120192;-78
2021/08/16 03:26:32;;;;;;;5.20;3.00;;;;;;;21.03;62.95;100014.44;4980461;27;120568;-78
2021/08/16 03:28:58;;;;;;;6.43;2.90;;;;;;;21.00;63.30;100009.19;5004893;27;120241;-78
2021/08/16 03:31:23;;;;;;;5.90;3.07;;;;;;;21.01;63.22;100010.69;5001592;27;119763;-78
2021/08/16 03:33:49;;;;;;;4.50;3.17;;;;;;;21.02;63.09;100012.19;4980121;28;120005;-78
2021/08/16 03:36:17;;;;;;;7.35;3.08;;;;;;;20.97;63.02;99990.75;5002695;27;121065;-78
2021/08/16 03:38:43;;;;;;;5.63;3.40;;;;;;;20.99;63.22;100000.06;5005499;27;121278;-78
2021/08/16 03:41:08;;;;;;;6.30;3.57;;;;;;;20.99;63.45;99996.53;4996756;27;119975;-78
2021/08/16 03:43:34;;;;;;;6.40;3.42;;;;;;;20.99;63.68;100002.13;5002886;27;123228;-78
2021/08/16 03:46:00;;;;;;;6.70;3.40;;;;;;;20.95;62.92;99999.66;5000060;27;121169;-78
2021/08/16 03:48:25;;;;;;;4.43;2.97;;;;;;;20.98;63.17;100001.38;4984459;27;120247;-79
2021/08/16 03:50:53;;;;;;;6.43;3.40;;;;;;;20.95;63.08;100002.44;4981221;28;122155;-78
2021/08/16 03:53:19;;;;;;;7.40;3.60;;;;;;;20.94;63.17;100012.09;5001200;27;119775;-78
2021/08/16 03:55:47;;;;;;;4.93;3.50;;;;;;;20.89;63.64;100007.41;4960492;28;120437;-78
2021/08/16 03:58:13;;;;;;;6.22;3.67;;;;;;;20.91;63.58;100015.97;4982942;27;121292;-78
2021/08/16 04:00:43;;;;;;;8.18;4.30;;;;;;;20.96;63.66;100003.19;5008180;27;120350;-78
2021/08/16 04:03:11;;;;;;;6.78;4.00;;;;;;;20.96;63.51;99997.63;4978964;28;122653;-78
2021/08/16 04:05:37;;;;;;;6.65;3.90;;;;;;;20.97;63.44;100010.28;4997794;27;120360;-78
2021/08/16 04:08:03;;;;;;;6.05;3.60;;;;;;;20.96;63.39;100020.69;4983817;27;120494;-78
2021/08/16 04:10:29;;;;;;;7.57;4.55;;;;;;;20.95;63.27;100013.59;4985828;27;120323;-79
2021/08/16 04:12:55;;;;;;;7.47;4.10;;;;;;;20.91;63.33;100001.28;4996975;27;119832;-78
2021/08/16 04:15:22;;;;;;;7.55;4.40;;;;;;;20.92;63.60;99997.22;4997055;27;120239;-79
2021/08/16 04:17:49;;;;;;;6.50;4.00;;;;;;;20.96;63.29;100006.00;4976074;28;120174;-78
2021/08/16 04:20:18;;;;;;;9.50;4.30;;;;;;;20.90;63.71;99988.63;4978272;28;120820;-78
2021/08/16 04:22:44;;;;;;;7.80;4.05;;;;;;;20.93;63.36;99993.13;5003967;27;119964;-78
2021/08/16 04:25:12;;;;;;;7.10;3.87;;;;;;;20.86;63.28;99983.38;4960664;28;121239;-78
2021/08/16 04:27:39;;;;;;;8.57;4.20;;;;;;;20.91;63.31;99988.09;4999956;28;120480;-78
2021/08/16 04:30:09;;;;;;;8.90;4.30;;;;;;;20.92;63.41;99977.69;4982164;28;124966;-78
2021/08/16 04:32:42;;;;;;;10.60;4.70;;;;;;;20.93;63.98;99973.63;5001438;27;120147;-78
2021/08/16 04:35:08;;;;;;;5.67;4.30;;;;;;;20.94;63.51;99972.31;4998466;27;121015;-78
2021/08/16 04:37:39;;;;;;;6.65;4.28;;;;;;;20.95;63.84;99966.22;4999666;27;121030;-78
2021/08/16 04:40:06;;;;;;;6.73;4.00;;;;;;;20.98;63.88;99961.59;5000477;27;125500;-78
2021/08/16 04:42:33;;;;;;;6.90;4.10;;;;;;;20.96;63.69;99950.97;5003319;27;119373;-78
2021/08/16 04:44:58;;;;;;;7.72;4.18;;;;;;;20.96;63.68;99947.44;4998711;27;119598;-78
2021/08/16 04:47:26;;;;;;;7.90;3.73;;;;;;;20.96;63.56;99947.44;4998188;27;120224;-78
2021/08/16 04:49:54;;;;;;;6.00;4.10;;;;;;;20.91;63.42;99945.53;4997292;27;120355;-78
2021/08/16 04:52:23;;;;;;;6.05;3.80;;;;;;;20.89;63.51;99943.28;5000914;27;120508;-78
2021/08/16 04:54:51;;;;;;;8.10;4.32;;;;;;;20.93;63.64;99948.53;5006614;27;120252;-78
2021/08/16 04:57:37;;;;;;;6.32;4.20;;;;;;;20.94;63.62;99947.25;4987703;27;121519;-78
2021/08/16 05:00:25;;;;;;;7.10;3.67;;;;;;;20.88;63.65;99938.25;5004517;27;120279;-79
2021/08/16 05:02:54;;;;;;;7.57;3.88;;;;;;;20.91;63.51;99945.53;5003301;27;119799;-78
2021/08/16 05:05:22;;;;;;;6.82;3.70;;;;;;;20.92;63.51;99947.78;4988904;28;119855;-79
2021/08/16 05:07:50;;;;;;;4.45;3.58;;;;;;;20.95;63.47;99948.72;5005070;27;120340;-78
2021/08/16 05:10:19;;;;;;;6.50;4.10;;;;;;;20.94;63.51;99952.81;5000551;27;120350;-78
2021/08/16 05:12:45;;;;;;;8.30;3.97;;;;;;;20.92;63.87;99950.56;5017377;27;120692;-78
2021/08/16 05:15:11;;;;;;;5.72;4.00;;;;;;;20.98;63.81;99956.00;4970837;27;120848;-78
2021/08/16 05:17:37;;;;;;;7.63;4.28;;;;;;;20.95;63.66;99951.53;5022615;27;120571;-79
2021/08/16 05:20:07;;;;;;;6.38;4.10;;;;;;;20.99;63.97;99960.31;5004238;27;119795;-78
2021/08/16 05:22:38;;;;;;;10.18;4.43;;;;;;;21.02;63.44;99953.63;5005918;27;120724;-78
2021/08/16 05:25:05;;;;;;;5.95;3.88;;;;;;;21.03;63.84;99955.13;5002781;27;121886;-78
2021/08/16 05:27:33;;;;;;;6.60;4.20;;;;;;;21.06;63.63;99956.88;4990979;28;121342;-78
2021/08/16 05:30:03;;;;;;;7.30;4.27;;;;;;;21.07;63.74;99947.22;5002877;27;120739;-78
2021/08/16 05:32:30;;;;;;;4.72;3.80;;;;;;;21.09;63.56;99947.41;5012247;27;120850;-78
2021/08/16 05:34:56;;;;;;;5.80;3.63;;;;;;;21.07;63.25;99941.63;5007166;27;120418;-78
2021/08/16 05:37:22;;;;;;;5.75;3.90;;;;;;;21.08;63.37;99943.13;5002309;27;120398;-78
2021/08/16 05:39:49;;;;;;;6.70;3.80;;;;;;;21.07;63.54;99945.19;5000531;27;120710;-78
2021/08/16 05:42:17;;;;;;;7.25;3.90;;;;;;;21.05;63.61;99935.81;5000762;27;120083;-78
2021/08/16 05:44:43;;;;;;;6.90;3.60;;;;;;;21.07;63.11;99936.81;5002489;27;122021;-78
2021/08/16 05:47:09;;;;;;;6.30;3.70;;;;;;;21.10;63.32;99943.34;4985428;27;120139;-78
2021/08/16 05:49:35;;;;;;;6.23;3.60;;;;;;;21.05;63.40;99933.03;4986072;28;120771;-78
2021/08/16 05:52:01;;;;;;;4.80;3.47;;;;;;;21.07;63.43;99939.59;4997725;27;120274;-78
2021/08/16 05:54:27;;;;;;;6.60;4.03;;;;;;;21.06;63.57;99940.88;4984310;27;120353;-78
2021/08/16 05:56:53;;;;;;;4.82;3.97;;;;;;;21.06;63.58;99932.53;5001435;28;119926;-78
2021/08/16 05:59:18;;;;;;;13.17;4.67;;;;;;;21.06;63.50;99926.19;5002053;27;120086;-78
2021/08/16 06:01:45;;;;;;;6.33;4.50;;;;;;;21.14;63.77;99943.75;5001570;27;120176;-78
2021/08/16 06:04:11;;;;;;;8.23;4.82;;;;;;;21.19;63.88;99939.31;4999157;27;120328;-78
2021/08/16 06:06:36;;;;;;;6.45;4.35;;;;;;;21.22;63.28;99941.03;4984296;27;122876;-79
2021/08/16 06:09:03;;;;;;;8.07;4.80;;;;;;;21.23;63.09;99940.47;5001505;27;123641;-78
2021/08/16 06:11:32;;;;;;;13.15;5.43;;;;;;;21.23;63.58;99925.78;4986200;28;120270;-78
2021/08/16 06:13:57;;;;;;;6.03;4.65;;;;;;;21.22;63.42;99927.84;5000811;27;119860;-78
2021/08/16 06:16:24;;;;;;;7.88;4.80;;;;;;;21.23;63.95;99926.53;5005696;27;120839;-78
2021/08/16 06:18:51;;;;;;;7.80;4.90;;;;;;;21.27;63.70;99926.22;4987807;27;120787;-78
2021/08/16 06:21:19;;;;;;;9.60;4.60;;;;;;;21.29;63.67;99923.66;4997835;27;119979;-78
2021/08/16 06:23:46;;;;;;;7.77;4.77;;;;;;;21.31;64.09;99927.41;4999653;27;122375;-78
2021/08/16 06:26:11;;;;;;;6.40;4.70;;;;;;;21.34;63.78;99929.13;4984457;27;122634;-78
2021/08/16 06:28:39;;;;;;;7.13;4.93;;;;;;;21.38;63.84;99918.34;5000281;27;120685;-78
2021/08/16 06:31:07;;;;;;;8.20;4.90;;;;;;;21.42;63.82;99929.16;5004808;27;120266;-78
2021/08/16 06:33:37;;;;;;;7.77;4.60;;;;;;;21.44;63.34;99918.97;5002992;27;123420;-78
2021/08/16 06:36:04;;;;;;;9.00;4.90;;;;;;;21.42;63.85;99909.66;5002946;27;121471;-78
2021/08/16 06:38:30;;;;;;;9.27;4.87;;;;;;;21.44;63.35;99907.06;4980422;28;120276;-78
2021/08/16 06:40:59;;;;;;;5.72;4.20;;;;;;;21.45;63.15;99906.50;5002024;27;120060;-78
2021/08/16 06:43:31;;;;;;;6.95;4.57;;;;;;;21.45;64.02;99909.31;4984586;27;121457;-78
2021/08/16 06:45:57;;;;;;;7.38;4.00;;;;;;;21.51;63.96;99911.94;4980089;28;121681;-78
2021/08/16 06:48:23;;;;;;;6.43;3.70;;;;;;;21.55;63.53;99906.03;4985432;27;120553;-78
2021/08/16 06:50:48;;;;;;;6.73;3.33;;;;;;;21.58;62.84;99910.53;4983519;28;120486;-78
2021/08/16 06:53:21;;;;;;;5.43;3.42;;;;;;;21.56;62.30;99897.13;5000552;27;120567;-78
2021/08/16 06:55:47;;;;;;;5.45;3.38;;;;;;;21.60;62.14;99896.78;5006564;28;122521;-78
2021/08/16 06:58:13;;;;;;;6.53;3.60;;;;;;;21.64;63.88;99897.19;5020942;27;120947;-78
2021/08/16 07:00:41;;;;;;;6.57;3.50;;;;;;;21.67;63.12;99898.88;4992900;27;120780;-78
2021/08/16 07:03:06;;;;;;;6.78;3.58;;;;;;;21.61;63.10;99887.88;5001833;27;120046;-78
2021/08/16 07:05:32;;;;;;;4.77;2.60;;;;;;;21.68;62.17;99892.00;5013379;27;120202;-78
2021/08/16 07:07:57;;;;;;;5.07;2.75;;;;;;;21.67;62.03;99896.09;4970154;27;120065;-78
2021/08/16 07:10:23;;;;;;;5.03;2.83;;;;;;;21.73;63.08;99896.69;4986600;28;120848;-78
2021/08/16 07:12:49;;;;;;;7.65;2.70;;;;;;;21.78;63.38;99901.41;5006858;27;121106;-78
2021/08/16 07:15:15;;;;;;;9.50;2.80;;;;;;;21.82;63.05;99901.78;4968660;22;122082;-74
2021/08/16 07:17:41;;;;;;;4.13;2.85;;;;;;;21.80;63.33;99884.09;4943405;28;122966;-74
2021/08/16 07:20:10;;;;;;;5.95;3.20;;;;;;;21.90;62.93;99893.47;4942655;28;121679;-74
2021/08/16 07:22:41;;;;;;;5.45;3.10;;;;;;;21.91;62.48;99895.69;4953004;28;121272;-74
2021/08/16 07:25:08;;;;;;;5.83;3.10;;;;;;;21.91;61.78;99889.38;4936345;28;120794;-74
2021/08/16 07:27:34;;;;;;;5.85;2.80;;;;;;;21.94;62.37;99879.91;4945674;28;121776;-74
2021/08/16 07:30:00;;;;;;;5.05;2.80;;;;;;;21.98;62.55;99885.88;4932352;28;120442;-74
2021/08/16 07:32:26;;;;;;;6.03;3.30;;;;;;;22.01;63.05;99891.13;4953774;28;121385;-74
2021/08/16 07:34:52;;;;;;;5.13;3.00;;;;;;;22.08;62.43;99883.38;4940992;28;121433;-74
2021/08/16 07:37:18;;;;;;;5.13;2.90;;;;;;;22.16;63.07;99889.75;4949018;28;121810;-74
2021/08/16 07:39:47;;;;;;;4.20;2.70;;;;;;;22.19;62.84;99886.59;4953324;28;121200;-74
2021/08/16 07:42:23;;;;;;;5.20;2.40;;;;;;;22.20;61.81;99884.53;4950680;28;121194;-75
2021/08/16 07:44:53;;;;;;;4.57;2.40;;;;;;;22.22;62.87;99887.53;4933515;28;121647;-75
2021/08/16 07:47:21;;;;;;;6.53;2.60;;;;;;;22.23;62.83;99886.97;4935802;28;124751;-74
2021/08/16 07:49:46;;;;;;;4.73;2.50;;;;;;;22.23;62.37;99881.38;4952031;28;122282;-74
2021/08/16 07:52:12;;;;;;;4.90;2.42;;;;;;;22.25;62.88;99875.28;4917092;28;120845;-75
2021/08/16 07:54:38;;;;;;;6.05;2.42;;;;;;;22.35;63.40;99879.03;4947042;28;122159;-74
2021/08/16 07:57:07;;;;;;;4.53;2.13;;;;;;;22.44;62.97;99869.38;4949654;28;123422;-74
2021/08/16 07:59:33;;;;;;;4.20;1.90;;;;;;;22.49;61.11;99879.66;4950465;28;122083;-74
2021/08/16 08:02:01;;;;;;;12.10;2.50;;;;;;;22.50;61.67;99876.31;4931584;28;122271;-74
2021/08/16 08:04:27;;;;;;;2.63;1.88;;;;;;;22.53;61.52;99871.66;4969043;28;121811;-75
2021/08/16 08:06:53;;;;;;;3.20;2.10;;;;;;;22.53;61.35;99874.47;4918604;28;123062;-75
2021/08/16 08:09:20;;;;;;;3.47;2.00;;;;;;;22.51;61.02;99874.28;4934315;28;122468;-74
2021/08/16 08:11:50;;;;;;;3.03;2.00;;;;;;;22.49;61.80;99880.41;4945071;28;122261;-75
2021/08/16 08:14:18;;;;;;;4.60;2.10;;;;;;;22.45;61.05;99877.22;4950933;28;121974;-75
2021/08/16 08:16:43;;;;;;;4.20;1.90;;;;;;;22.42;60.60;99872.72;4948454;28;121611;-76
2021/08/16 08:19:09;;;;;;;4.97;2.00;;;;;;;22.39;61.20;99884.25;4939174;28;123359;-74
2021/08/16 08:21:35;;;;;;;5.45;2.03;;;;;;;22.35;60.69;99874.19;4940777;28;120768;-74
2021/08/16 08:24:01;;;;;;;3.83;1.95;;;;;;;22.34;61.40;99874.75;4947024;28;122204;-75
2021/08/16 08:26:27;;;;;;;5.60;2.30;;;;;;;22.36;61.75;99875.69;4944478;28;121149;-76
2021/08/16 08:28:53;;;;;;;6.43;2.10;;;;;;;22.37;61.86;99876.44;4965854;28;121583;-75
2021/08/16 08:31:18;;;;;;;8.50;2.20;;;;;;;22.37;62.11;99870.84;4936805;28;121852;-74
2021/08/16 08:33:46;;;;;;;6.38;1.90;;;;;;;22.39;62.76;99873.84;4949314;28;121586;-74
2021/08/16 08:36:12;;;;;;;3.85;2.20;;;;;;;22.30;61.63;99863.19;4950340;28;121970;-74
2021/08/16 08:38:37;;;;;;;4.47;2.00;;;;;;;22.37;61.64;99868.06;4947264;28;121707;-74
2021/08/16 08:41:09;;;;;;;3.50;2.08;;;;;;;22.33;61.78;99856.50;4931975;28;121821;-74
2021/08/16 08:43:36;;;;;;;3.08;1.92;;;;;;;22.32;61.47;99852.97;4960440;28;122244;-74
2021/08/16 08:46:02;;;;;;;3.00;2.17;;;;;;;22.35;61.43;99871.41;4950893;28;121702;-74
2021/08/16 08:48:28;;;;;;;4.82;2.10;;;;;;;22.34;61.51;99855.94;4951196;28;123158;-74
2021/08/16 08:50:54;;;;;;;7.00;2.60;;;;;;;22.33;61.63;99860.03;4948245;28;122081;-74
2021/08/16 08:53:20;;;;;;;3.97;2.30;;;;;;;22.33;62.28;99856.50;4948364;28;121563;-75
2021/08/16 08:55:45;;;;;;;5.23;2.57;;;;;;;22.34;62.64;99860.78;4952614;28;128904;-74
2021/08/16 08:58:15;;;;;;;8.40;2.37;;;;;;;22.32;62.90;99869.72;4960991;28;122480;-74
2021/08/16 09:00:44;;;;;;;3.47;2.40;;;;;;;22.38;62.85;99866.00;4934198;28;121826;-74
2021/08/16 09:03:10;;;;;;;6.25;2.50;;;;;;;22.39;63.22;99862.66;4951454;28;121976;-74
2021/08/16 09:05:51;;;;;;;5.47;2.50;;;;;;;22.39;63.08;99865.47;4947721;28;121493;-74
2021/08/16 09:08:44;;;;;;;5.73;2.20;;;;;;;22.43;62.14;99873.47;4967720;28;123003;-74
2021/08/16 09:11:15;;;;;;;4.47;2.10;;;;;;;22.43;62.93;99881.84;4942888;28;122512;-74
2021/08/16 09:13:52;;;;;;;3.53;2.00;;;;;;;22.43;61.81;99879.06;4958964;28;122705;-74
2021/08/16 09:16:21;;;;;;;3.60;1.92;;;;;;;22.39;62.64;99875.88;4940247;28;123053;-74
2021/08/16 09:18:51;;;;;;;3.53;1.92;;;;;;;22.41;61.98;99870.50;4943369;28;121557;-74
2021/08/16 09:21:25;;;;;;;3.85;1.90;;;;;;;22.35;62.89;99865.06;4953660;28;122858;-74
2021/08/16 09:23:55;;;;;;;3.97;2.00;;;;;;;22.37;63.00;99865.25;4950775;28;122242;-74
2021/08/16 09:26:29;;;;;;;5.50;2.10;;;;;;;22.33;62.00;99860.03;4956999;28;122618;-74
2021/08/16 09:29:15;;;;;;;4.97;2.27;;;;;;;22.32;63.08;99852.22;4920048;28;122456;-73
2021/08/16 09:32:00;;;;;;;4.43;2.20;;;;;;;22.30;63.43;99849.22;4946704;28;122762;-75
2021/08/16 09:34:31;;;;;;;2.67;2.00;;;;;;;22.30;63.47;99852.03;4938409;28;121547;-74
2021/08/16 09:37:02;;;;;;;3.97;2.10;;;;;;;22.29;62.55;99836.56;4915925;28;122243;-74
2021/08/16 09:39:33;;;;;;;7.63;2.20;;;;;;;22.31;63.90;99845.13;4932786;28;123144;-74
2021/08/16 09:42:01;;;;;;;4.47;2.30;;;;;;;22.37;63.01;99834.53;4950027;28;122187;-74
2021/08/16 09:44:28;;;;;;;5.82;2.60;;;;;;;22.40;63.36;99832.69;4946692;28;122868;-74
2021/08/16 09:47:08;;;;;;;3.20;1.98;;;;;;;22.44;63.02;99835.84;4945789;28;122582;-73
2021/08/16 09:49:34;;;;;;;4.10;1.70;;;;;;;22.48;62.14;99823.03;4957541;28;122639;-75
2021/08/16 09:52:11;;;;;;;3.10;1.50;;;;;;;22.52;61.52;99825.47;4945233;28;122004;-74
2021/08/16 09:54:39;;;;;;;4.63;1.70;;;;;;;22.52;61.83;99829.00;4937364;28;123979;-74
2021/08/16 09:57:11;;;;;;;2.60;1.50;;;;;;;22.55;61.67;99811.13;4949201;28;123128;-74
2021/08/16 09:59:41;;;;;;;2.15;1.50;;;;;;;22.56;61.53;99820.25;4935298;28;123614;-73
2021/08/16 10:02:10;;;;;;;3.57;1.80;;;;;;;22.56;62.44;99807.03;4952086;28;122749;-74
2021/08/16 10:04:38;;;;;;;3.95;1.73;;;;;;;22.65;62.04;99803.69;4943810;28;122034;-74
2021/08/16 10:07:10;;;;;;;4.97;1.90;;;;;;;22.74;62.75;99810.06;4951196;28;123007;-74
2021/08/16 10:09:38;;;;;;;2.47;1.55;;;;;;;22.81;62.13;99806.53;4954227;28;122879;-74
2021/08/16 10:12:05;;;;;;;5.43;2.00;;;;;;;22.91;62.79;99799.09;4939833;28;122749;-74
2021/08/16 10:14:35;;;;;;;4.90;1.70;;;;;;;22.97;61.30;99788.50;4944955;28;122279;-75
2021/08/16 10:17:05;;;;;;;3.67;1.60;;;;;;;23.05;60.31;99794.81;4952713;28;122572;-74
2021/08/16 10:19:37;;;;;;;3.53;1.57;;;;;;;23.15;61.64;99795.75;4948217;28;122648;-74
2021/08/16 10:22:05;;;;;;;3.22;1.50;;;;;;;23.23;61.41;99790.91;4947171;28;126133;-74
2021/08/16 10:24:31;;;;;;;3.47;1.50;;;;;;;23.31;60.66;99796.50;4946570;28;122652;-74
2021/08/16 10:27:08;;;;;;;2.92;1.45;;;;;;;23.36;60.67;99775.97;4951091;28;123410;-74
2021/08/16 10:29:42;;;;;;;3.30;1.50;;;;;;;23.48;61.03;99773.53;4964897;28;122612;-74
2021/08/16 10:32:17;;;;;;;3.78;1.27;;;;;;;23.55;59.93;99770.72;4937599;28;124095;-74
2021/08/16 10:34:46;;;;;;;3.90;1.50;;;;;;;23.53;58.10;99803.38;4951403;28;124261;-74
2021/08/16 10:37:19;;;;;;;19.35;4.30;;;;;;;23.36;57.62;99837.53;4934884;28;122510;-74
2021/08/16 10:39:46;;;;;;;6.97;2.40;;;;;;;23.00;56.99;99826.53;4945068;28;122704;-74
2021/08/16 10:42:16;;;;;;;5.80;2.63;;;;;;;22.58;58.52;99824.00;4930638;28;122364;-74
2021/08/16 10:44:48;;;;;;;5.55;2.60;;;;;;;22.30;59.17;99810.88;4943756;28;122822;-74
2021/08/16 10:47:41;;;;;;;6.32;2.70;;;;;;;22.02;60.03;99814.44;4954744;28;121254;-74
2021/08/16 10:50:10;;;;;;;7.05;3.00;;;;;;;21.85;61.21;99799.44;4941992;28;122340;-74
2021/08/16 10:52:38;;;;;;;7.32;3.20;;;;;;;21.76;62.27;99793.06;4951056;28;120870;-74
2021/08/16 10:55:14;;;;;;;8.20;3.20;;;;;;;21.72;62.31;99783.56;4945314;28;122140;-74
2021/08/16 10:57:41;;;;;;;6.53;3.10;;;;;;;21.80;62.78;99803.91;4959732;28;122159;-74
2021/08/16 11:00:10;;;;;;;10.85;4.25;;;;;;;21.84;64.91;99798.72;4949470;28;121893;-74
2021/08/16 11:02:40;;;;;;;8.83;3.87;;;;;;;21.95;64.57;99792.03;4947531;28;121920;-74
2021/08/16 11:05:08;;;;;;;8.97;3.60;;;;;;;22.11;63.75;99799.22;4949634;28;122776;-74
2021/08/16 11:07:33;;;;;;;8.32;3.40;;;;;;;22.15;62.58;99801.66;4945771;28;122160;-74
2021/08/16 11:10:07;;;;;;;11.18;3.28;;;;;;;22.20;61.39;99817.50;4929382;28;122787;-74
2021/08/16 11:12:38;;;;;;;9.00;3.28;;;;;;;22.18;61.68;99806.88;4922995;28;123396;-74
2021/08/16 11:15:05;;;;;;;7.82;3.03;;;;;;;22.19;60.87;99821.59;4948218;28;122535;-74
2021/08/16 11:17:31;;;;;;;6.93;2.97;;;;;;;22.17;61.38;99818.63;4917004;28;122446;-74
2021/08/16 11:20:00;;;;;;;6.63;2.60;;;;;;;22.14;59.97;99819.72;4954250;28;123100;-74
2021/08/16 11:22:30;;;;;;;7.50;2.77;;;;;;;22.10;59.97;99831.25;4947476;28;122765;-74
2021/08/16 11:25:05;;;;;;;9.10;2.50;;;;;;;21.98;60.74;99819.59;4953251;28;122173;-74